createdAt,value
2023-01-19T00:00:51.686Z,6.38
2023-01-19T00:03:18.560Z,6.18
2023-01-19T00:05:45.515Z,6.43
2023-01-19T00:08:15.196Z,6.47
2023-01-19T00:10:47.380Z,6.30
2023-01-19T00:13:15.427Z,6.80
2023-01-19T00:15:42.117Z,6.28
2023-01-19T00:18:10.890Z,6.82
2023-01-19T00:20:38.395Z,6.70
2023-01-19T00:23:05.671Z,6.57
2023-01-19T00:25:32.287Z,7.35
2023-01-19T00:28:01.559Z,5.07
2023-01-19T00:30:28.517Z,2.83
2023-01-19T00:32:55.065Z,2.58
2023-01-19T00:35:21.674Z,2.53
2023-01-19T00:37:48.249Z,2.17
2023-01-19T00:40:15.055Z,2.00
2023-01-19T00:42:44.325Z,2.60
2023-01-19T00:45:18.580Z,1.90
2023-01-19T00:47:45.301Z,1.67
2023-01-19T00:50:14.208Z,1.65
2023-01-19T00:52:41.412Z,1.60
2023-01-19T00:55:09.376Z,2.03
2023-01-19T00:57:36.368Z,2.03
2023-01-19T01:00:07.362Z,3.47
2023-01-19T01:02:34.307Z,5.00
2023-01-19T01:05:02.870Z,5.20
2023-01-19T01:07:30.647Z,5.80
2023-01-19T01:09:57.510Z,6.30
2023-01-19T01:12:24.719Z,6.43
2023-01-19T01:14:51.279Z,6.88
2023-01-19T01:17:17.836Z,6.65
2023-01-19T01:19:44.378Z,6.45
2023-01-19T01:22:11.122Z,6.28
2023-01-19T01:24:38.249Z,6.28
2023-01-19T01:27:04.773Z,5.75
2023-01-19T01:29:31.281Z,5.88
2023-01-19T01:31:57.884Z,5.78
2023-01-19T01:34:24.437Z,5.10
2023-01-19T01:36:51.413Z,4.75
2023-01-19T01:39:17.928Z,4.40
2023-01-19T01:41:44.488Z,4.70
2023-01-19T01:44:53.496Z,4.63
2023-01-19T01:47:40.919Z,3.90
2023-01-19T01:50:28.751Z,3.65
2023-01-19T01:53:21.608Z,3.20
2023-01-19T01:55:49.722Z,3.00
2023-01-19T01:58:16.969Z,2.70
2023-01-19T02:01:02.397Z,2.22
2023-01-19T02:03:29.431Z,2.22
2023-01-19T02:06:00.099Z,2.35
2023-01-19T02:09:04.253Z,2.40
2023-01-19T02:11:50.690Z,1.83
2023-01-19T02:14:19.052Z,1.85
2023-01-19T02:16:46.543Z,1.50
2023-01-19T02:19:19.557Z,1.60
2023-01-19T02:21:57.672Z,1.10
2023-01-19T02:24:25.206Z,1.08
2023-01-19T02:26:52.305Z,0.70
2023-01-19T02:29:21.588Z,1.17
2023-01-19T02:31:48.412Z,0.95
2023-01-19T02:34:18.262Z,1.02
2023-01-19T02:36:51.930Z,1.00
2023-01-19T02:39:22.463Z,0.90
2023-01-19T02:41:58.740Z,0.70
2023-01-19T02:44:27.697Z,0.55
2023-01-19T02:46:54.767Z,0.60
2023-01-19T02:49:21.463Z,0.60
2023-01-19T02:51:48.659Z,0.60
2023-01-19T02:54:33.755Z,0.50
2023-01-19T02:57:20.124Z,0.57
2023-01-19T03:00:09.586Z,0.50
2023-01-19T03:02:59.216Z,0.60
2023-01-19T03:05:38.814Z,0.77
2023-01-19T03:08:31.215Z,0.60
2023-01-19T03:11:03.216Z,0.60
2023-01-19T03:13:51.570Z,0.70
2023-01-19T03:16:42.308Z,0.60
2023-01-19T03:19:33.213Z,0.35
2023-01-19T03:22:05.474Z,0.40
2023-01-19T03:24:37.814Z,0.32
2023-01-19T03:27:10.525Z,0.50
2023-01-19T03:29:40.952Z,0.40
2023-01-19T03:32:12.726Z,0.38
2023-01-19T03:34:42.844Z,0.30
2023-01-19T03:37:11.729Z,0.30
2023-01-19T03:39:38.293Z,0.40
2023-01-19T03:42:14.840Z,0.20
2023-01-19T03:44:44.263Z,0.50
2023-01-19T03:47:14.182Z,0.60
2023-01-19T03:49:44.173Z,0.60
2023-01-19T03:52:11.398Z,0.40
2023-01-19T03:54:38.167Z,0.43
2023-01-19T03:57:04.818Z,0.70
2023-01-19T03:59:31.347Z,0.20
2023-01-19T04:01:57.995Z,0.13
2023-01-19T04:04:25.667Z,0.30
2023-01-19T04:06:52.599Z,0.20
2023-01-19T04:09:20.114Z,0.30
2023-01-19T04:11:46.822Z,0.50
2023-01-19T04:14:13.900Z,0.60
2023-01-19T04:16:40.568Z,0.45
2023-01-19T04:19:07.183Z,0.52
2023-01-19T04:21:34.128Z,0.30
2023-01-19T04:24:01.129Z,0.50
2023-01-19T04:26:28.218Z,0.50
2023-01-19T04:28:54.935Z,0.50
2023-01-19T04:31:22.710Z,0.30
2023-01-19T04:33:49.641Z,0.32
2023-01-19T04:36:16.382Z,0.35
2023-01-19T04:38:42.909Z,0.40
2023-01-19T04:41:10.716Z,0.30
2023-01-19T04:43:37.983Z,0.35
2023-01-19T04:46:04.961Z,0.60
2023-01-19T04:48:31.817Z,0.50
2023-01-19T04:50:58.473Z,0.43
2023-01-19T04:53:25.028Z,0.40
2023-01-19T04:55:55.392Z,0.40
2023-01-19T04:58:22.140Z,0.52
2023-01-19T05:00:49.103Z,0.40
2023-01-19T05:03:15.767Z,0.50
2023-01-19T05:05:42.418Z,1.13
2023-01-19T05:08:08.911Z,0.50
2023-01-19T05:10:36.614Z,0.75
2023-01-19T05:13:03.503Z,0.47
2023-01-19T05:15:30.172Z,0.43
2023-01-19T05:17:58.099Z,0.60
2023-01-19T05:20:25.376Z,0.70
2023-01-19T05:22:52.706Z,0.40
2023-01-19T05:25:19.783Z,0.65
2023-01-19T05:27:46.317Z,0.70
2023-01-19T05:30:14.352Z,0.57
2023-01-19T05:32:41.055Z,0.50
2023-01-19T05:35:08.491Z,0.65
2023-01-19T05:37:35.076Z,0.88
2023-01-19T05:40:01.656Z,0.80
2023-01-19T05:42:28.217Z,0.70
2023-01-19T05:44:54.793Z,0.90
2023-01-19T05:47:21.364Z,0.80
2023-01-19T05:49:47.974Z,0.70
2023-01-19T05:52:14.989Z,1.20
2023-01-19T05:54:41.487Z,0.88
2023-01-19T05:57:08.527Z,1.23
2023-01-19T05:59:35.248Z,0.90
2023-01-19T06:02:01.865Z,0.70
2023-01-19T06:04:28.552Z,1.02
2023-01-19T06:06:55.129Z,0.95
2023-01-19T06:09:21.713Z,0.73
2023-01-19T06:11:48.658Z,0.90
2023-01-19T06:14:15.255Z,0.65
2023-01-19T06:16:41.908Z,0.73
2023-01-19T06:19:08.476Z,0.82
2023-01-19T06:21:35.060Z,0.80
2023-01-19T06:24:01.962Z,1.10
2023-01-19T06:26:28.475Z,0.88
2023-01-19T06:28:55.301Z,0.88
2023-01-19T06:31:21.922Z,0.90
2023-01-19T06:33:48.485Z,0.82
2023-01-19T06:36:14.955Z,0.98
2023-01-19T06:38:41.555Z,0.80
2023-01-19T06:41:08.139Z,1.00
2023-01-19T06:43:34.622Z,0.93
2023-01-19T06:46:01.331Z,0.73
2023-01-19T06:48:28.356Z,0.77
2023-01-19T06:50:56.214Z,1.00
2023-01-19T06:53:24.456Z,1.02
2023-01-19T06:55:50.987Z,0.88
2023-01-19T06:58:17.719Z,0.73
2023-01-19T07:00:44.361Z,0.65
2023-01-19T07:03:19.862Z,0.80
2023-01-19T07:05:46.908Z,1.17
2023-01-19T07:08:15.471Z,1.17
2023-01-19T07:11:25.729Z,1.40
2023-01-19T07:13:29.461Z,1.40
2023-01-19T07:15:56.759Z,1.35
2023-01-19T07:18:23.400Z,1.25
2023-01-19T07:20:50.093Z,1.38
2023-01-19T07:23:16.721Z,1.05
2023-01-19T07:25:46.538Z,1.00
2023-01-19T07:28:15.722Z,1.00
2023-01-19T07:30:43.750Z,1.15
2023-01-19T07:33:10.414Z,1.40
2023-01-19T07:35:37.004Z,1.30
2023-01-19T07:38:04.777Z,1.58
2023-01-19T07:40:31.387Z,1.10
2023-01-19T07:42:58.327Z,2.13
2023-01-19T07:45:27.168Z,2.08
2023-01-19T07:47:55.265Z,1.95
2023-01-19T07:50:24.589Z,1.92
2023-01-19T07:52:53.598Z,1.80
2023-01-19T07:55:21.222Z,1.98
2023-01-19T07:57:53.609Z,1.40
2023-01-19T08:00:24.625Z,1.95
2023-01-19T08:02:53.779Z,1.88
2023-01-19T08:05:21.199Z,2.10
2023-01-19T08:07:48.464Z,3.13
2023-01-19T08:10:16.083Z,3.45
2023-01-19T08:12:42.711Z,23.33
2023-01-19T08:15:10.455Z,5.75
2023-01-19T08:17:38.762Z,4.60
2023-01-19T08:20:06.663Z,8.38
2023-01-19T08:22:33.296Z,2.55
2023-01-19T08:24:59.843Z,2.63
2023-01-19T08:27:26.423Z,1.67
2023-01-19T08:29:54.371Z,1.90
2023-01-19T08:32:21.058Z,1.73
2023-01-19T08:34:47.623Z,1.67
2023-01-19T08:37:14.177Z,1.85
2023-01-19T08:39:40.696Z,2.03
2023-01-19T08:42:07.235Z,2.13
2023-01-19T08:44:33.752Z,3.35
2023-01-19T08:47:00.377Z,2.35
2023-01-19T08:49:27.113Z,2.30
2023-01-19T08:51:53.688Z,2.13
2023-01-19T08:54:21.851Z,1.70
2023-01-19T08:56:48.551Z,1.95
2023-01-19T08:59:15.147Z,2.10
2023-01-19T09:01:42.141Z,1.90
2023-01-19T09:04:09.107Z,1.77
2023-01-19T09:06:36.992Z,2.70
2023-01-19T09:09:03.861Z,2.30
2023-01-19T09:11:30.885Z,4.03
2023-01-19T09:13:57.748Z,2.28
2023-01-19T09:16:27.058Z,2.42
2023-01-19T09:18:54.230Z,1.98
2023-01-19T09:21:21.064Z,1.70
2023-01-19T09:23:49.881Z,1.40
2023-01-19T09:26:16.777Z,1.50
2023-01-19T09:28:43.463Z,1.25
2023-01-19T09:31:10.413Z,1.30
2023-01-19T09:33:37.259Z,1.30
2023-01-19T09:36:03.924Z,1.45
2023-01-19T09:38:33.048Z,1.33
2023-01-19T09:41:00.564Z,1.17
2023-01-19T09:43:36.787Z,2.03
2023-01-19T09:46:18.359Z,1.48
2023-01-19T09:48:52.475Z,1.05
2023-01-19T09:51:26.089Z,1.20
2023-01-19T09:54:15.973Z,0.95
2023-01-19T09:56:49.307Z,1.10
2023-01-19T09:59:32.001Z,1.08
2023-01-19T10:02:08.080Z,1.40
2023-01-19T10:04:38.668Z,1.00
2023-01-19T10:07:26.921Z,1.30
2023-01-19T10:10:11.780Z,1.00
2023-01-19T10:12:54.070Z,0.85
2023-01-19T10:15:55.625Z,1.10
2023-01-19T10:18:47.914Z,0.80
2023-01-19T10:21:31.585Z,1.00
2023-01-19T10:24:14.435Z,1.40
2023-01-19T10:26:49.264Z,0.82
2023-01-19T10:29:26.045Z,1.10
2023-01-19T10:32:04.248Z,1.00
2023-01-19T10:34:30.922Z,1.00
2023-01-19T10:37:04.488Z,1.02
2023-01-19T10:39:31.091Z,0.95
2023-01-19T10:42:00.935Z,0.90
2023-01-19T10:44:29.528Z,0.93
2023-01-19T10:46:59.171Z,0.95
2023-01-19T10:49:28.024Z,0.80
2023-01-19T10:54:23.071Z,1.00
2023-01-19T10:57:10.133Z,0.90
2023-01-19T11:02:20.228Z,0.95
2023-01-19T11:04:53.324Z,0.90
2023-01-19T11:07:28.338Z,0.70
2023-01-19T11:10:16.728Z,0.90
2023-01-19T11:12:44.265Z,0.73
2023-01-19T11:15:23.435Z,0.80
2023-01-19T11:17:50.482Z,0.80
2023-01-19T11:20:28.350Z,0.85
2023-01-19T11:23:18.855Z,0.90
2023-01-19T11:25:48.420Z,0.60
2023-01-19T11:28:20.599Z,0.90
2023-01-19T11:30:59.496Z,0.82
2023-01-19T11:33:45.527Z,0.80
2023-01-19T11:36:24.418Z,0.70
2023-01-19T11:38:56.090Z,0.70
2023-01-19T11:41:28.713Z,0.88
2023-01-19T11:44:17.447Z,0.98
2023-01-19T11:46:47.992Z,0.70
2023-01-19T11:50:06.117Z,0.90
2023-01-19T11:52:43.200Z,1.35
2023-01-19T11:55:41.700Z,0.82
2023-01-19T11:58:15.493Z,1.10
2023-01-19T12:00:58.385Z,0.73
2023-01-19T12:03:33.090Z,0.73
2023-01-19T12:09:09.689Z,0.82
2023-01-19T12:11:46.953Z,0.70
2023-01-19T12:14:21.601Z,0.85
2023-01-19T12:16:54.307Z,0.88
2023-01-19T12:19:35.848Z,1.00
2023-01-19T12:22:04.632Z,0.90
2023-01-19T12:24:40.794Z,0.77
2023-01-19T12:27:44.068Z,0.80
2023-01-19T12:30:31.572Z,1.15
2023-01-19T12:33:35.206Z,0.70
2023-01-19T12:36:21.990Z,0.60
2023-01-19T12:38:53.949Z,0.65
2023-01-19T12:41:23.522Z,1.00
2023-01-19T12:44:12.113Z,0.90
2023-01-19T12:46:40.127Z,0.90
2023-01-19T12:49:13.510Z,0.70
2023-01-19T12:51:40.698Z,0.70
2023-01-19T12:54:18.439Z,0.82
2023-01-19T12:56:46.539Z,0.77
2023-01-19T12:59:25.138Z,0.75
2023-01-19T13:02:28.256Z,0.70
2023-01-19T13:05:33.750Z,0.95
2023-01-19T13:10:54.590Z,1.00
2023-01-19T13:13:23.756Z,0.57
2023-01-19T13:15:51.191Z,0.70
2023-01-19T13:18:28.379Z,0.70
2023-01-19T13:21:08.814Z,0.75
2023-01-19T13:23:49.863Z,0.57
2023-01-19T13:26:25.458Z,0.55
2023-01-19T13:28:58.458Z,0.60
2023-01-19T13:31:26.144Z,0.90
2023-01-19T13:33:55.284Z,0.68
2023-01-19T13:36:53.101Z,0.60
2023-01-19T13:39:30.951Z,0.52
2023-01-19T13:42:02.116Z,0.60
2023-01-19T13:44:35.106Z,0.50
2023-01-19T13:47:04.324Z,0.80
2023-01-19T13:49:36.348Z,0.77
2023-01-19T13:52:19.600Z,0.80
2023-01-19T13:54:56.466Z,0.68
2023-01-19T13:57:29.615Z,0.60
2023-01-19T14:00:12.023Z,0.80
2023-01-19T14:02:39.923Z,1.08
2023-01-19T14:05:13.547Z,0.80
2023-01-19T14:07:40.346Z,0.93
2023-01-19T14:10:12.807Z,0.60
2023-01-19T14:12:51.198Z,0.77
2023-01-19T14:15:24.872Z,0.82
2023-01-19T14:18:19.078Z,0.93
2023-01-19T14:21:07.763Z,0.80
2023-01-19T14:23:43.580Z,0.70
2023-01-19T14:26:38.286Z,0.90
2023-01-19T14:29:19.830Z,0.80
2023-01-19T14:31:53.214Z,0.68
2023-01-19T14:34:39.735Z,0.90
2023-01-19T14:37:36.169Z,0.65
2023-01-19T14:40:10.921Z,0.65
2023-01-19T14:42:39.305Z,1.10
2023-01-19T14:45:33.739Z,0.70
2023-01-19T14:48:15.822Z,1.08
2023-01-19T14:50:57.658Z,0.80
2023-01-19T14:53:30.136Z,0.82
2023-01-19T14:56:06.753Z,0.77
2023-01-19T14:58:35.680Z,1.13
2023-01-19T15:01:02.620Z,0.85
2023-01-19T15:03:44.364Z,0.85
2023-01-19T15:06:20.418Z,0.90
2023-01-19T15:08:47.428Z,1.00
2023-01-19T15:11:29.319Z,1.10
2023-01-19T15:13:55.865Z,0.93
2023-01-19T15:16:25.136Z,1.20
2023-01-19T15:18:52.037Z,0.80
2023-01-19T15:21:21.760Z,1.05
2023-01-19T15:23:49.142Z,0.80
2023-01-19T15:26:18.082Z,1.13
2023-01-19T15:28:46.032Z,0.90
2023-01-19T15:31:23.854Z,3.45
2023-01-19T15:33:50.573Z,3.25
2023-01-19T15:36:21.190Z,2.20
2023-01-19T15:38:50.851Z,3.85
2023-01-19T15:41:27.914Z,2.20
2023-01-19T15:43:54.511Z,7.38
2023-01-19T15:46:22.775Z,4.38
2023-01-19T15:48:50.630Z,1.38
2023-01-19T15:51:20.258Z,3.80
2023-01-19T15:53:47.963Z,3.35
2023-01-19T15:56:20.414Z,1.67
2023-01-19T15:58:47.322Z,1.85
2023-01-19T16:01:19.166Z,1.40
2023-01-19T16:03:47.847Z,1.35
2023-01-19T16:06:16.324Z,1.50
2023-01-19T16:08:42.992Z,1.98
2023-01-19T16:11:14.786Z,1.83
2023-01-19T16:13:46.288Z,2.15
2023-01-19T16:16:24.236Z,2.08
2023-01-19T16:18:51.236Z,1.95
2023-01-19T16:21:18.477Z,2.30
2023-01-19T16:23:45.056Z,2.65
2023-01-19T16:26:26.280Z,2.28
2023-01-19T16:28:56.077Z,2.58
2023-01-19T16:31:22.644Z,2.90
2023-01-19T16:33:49.779Z,2.88
2023-01-19T16:36:28.193Z,2.53
2023-01-19T16:38:59.061Z,2.53
2023-01-19T16:41:25.753Z,2.83
2023-01-19T16:43:57.731Z,2.60
2023-01-19T16:46:30.484Z,3.10
2023-01-19T16:49:04.121Z,3.67
2023-01-19T16:51:32.276Z,3.35
2023-01-19T16:53:59.488Z,3.03
2023-01-19T16:56:26.055Z,3.30
2023-01-19T16:58:56.905Z,4.30
2023-01-19T17:01:24.779Z,4.22
2023-01-19T17:03:52.207Z,5.22
2023-01-19T17:06:22.841Z,5.03
2023-01-19T17:08:50.464Z,5.00
2023-01-19T17:11:28.739Z,4.60
2023-01-19T17:14:01.195Z,4.47
2023-01-19T17:16:29.231Z,5.97
2023-01-19T17:19:00.945Z,5.28
2023-01-19T17:21:28.279Z,4.85
2023-01-19T17:23:56.466Z,4.53
2023-01-19T17:26:28.451Z,4.25
2023-01-19T17:29:03.505Z,4.55
2023-01-19T17:33:58.813Z,4.22
2023-01-19T17:36:27.712Z,4.05
2023-01-19T17:38:57.140Z,4.65
2023-01-19T17:41:26.543Z,4.07
2023-01-19T17:43:53.655Z,3.67
2023-01-19T17:46:22.891Z,4.15
2023-01-19T17:48:57.846Z,4.90
2023-01-19T17:51:25.185Z,4.35
2023-01-19T17:53:52.952Z,4.93
2023-01-19T17:56:22.184Z,5.68
2023-01-19T17:58:49.724Z,4.70
2023-01-19T18:01:19.424Z,5.32
2023-01-19T18:03:46.763Z,5.80
2023-01-19T18:06:14.165Z,5.47
2023-01-19T18:08:42.828Z,6.00
2023-01-19T18:11:10.807Z,4.60
2023-01-19T18:13:38.001Z,3.72
2023-01-19T18:16:11.654Z,3.47
2023-01-19T18:18:38.355Z,3.80
2023-01-19T18:21:10.689Z,3.70
2023-01-19T18:23:37.817Z,3.40
2023-01-19T18:26:07.140Z,3.55
2023-01-19T18:28:34.658Z,3.83
2023-01-19T18:31:01.825Z,5.07
2023-01-19T18:33:31.361Z,5.38
2023-01-19T18:35:57.858Z,5.45
2023-01-19T18:38:24.419Z,7.40
2023-01-19T18:41:03.760Z,7.80
2023-01-19T18:43:30.972Z,7.70
2023-01-19T18:45:57.657Z,7.57
2023-01-19T18:48:24.382Z,7.55
2023-01-19T18:50:51.031Z,7.57
2023-01-19T18:53:18.068Z,8.38
2023-01-19T18:55:56.752Z,8.30
2023-01-19T18:58:24.145Z,7.50
2023-01-19T19:00:51.095Z,9.27
2023-01-19T19:03:17.696Z,8.63
2023-01-19T19:05:44.277Z,7.90
2023-01-19T19:08:11.169Z,7.53
2023-01-19T19:10:39.865Z,6.82
2023-01-19T19:13:06.553Z,7.22
2023-01-19T19:15:33.567Z,5.75
2023-01-19T19:18:00.163Z,6.20
2023-01-19T19:20:26.995Z,6.80
2023-01-19T19:22:54.931Z,6.72
2023-01-19T19:25:21.820Z,6.80
2023-01-19T19:27:52.141Z,28.15
2023-01-19T19:30:19.924Z,21.00
2023-01-19T19:32:52.817Z,14.82
2023-01-19T19:35:21.158Z,7.05
2023-01-19T19:37:48.948Z,4.70
2023-01-19T19:40:16.107Z,4.07
2023-01-19T19:42:42.799Z,4.03
2023-01-19T19:45:09.964Z,3.78
2023-01-19T19:47:36.517Z,4.00
2023-01-19T19:50:03.065Z,3.45
2023-01-19T19:52:29.635Z,3.10
2023-01-19T19:54:56.241Z,7.03
2023-01-19T19:57:22.897Z,2.53
2023-01-19T19:59:49.417Z,10.32
2023-01-19T20:02:16.031Z,3.60
2023-01-19T20:04:43.113Z,2.28
2023-01-19T20:07:09.653Z,2.00
2023-01-19T20:09:36.708Z,1.75
2023-01-19T20:12:03.385Z,4.65
2023-01-19T20:14:29.882Z,14.80
2023-01-19T20:16:56.407Z,29.15
2023-01-19T20:19:23.068Z,7.90
2023-01-19T20:21:49.618Z,4.45
2023-01-19T20:24:19.858Z,2.90
2023-01-19T20:26:52.399Z,2.38
2023-01-19T20:29:20.085Z,2.42
2023-01-19T20:31:49.482Z,2.60
2023-01-19T20:34:18.707Z,3.42
2023-01-19T20:36:49.755Z,3.15
2023-01-19T20:39:20.839Z,6.55
2023-01-19T20:41:49.010Z,2.22
2023-01-19T20:44:20.314Z,4.15
2023-01-19T20:46:47.528Z,2.90
2023-01-19T20:49:14.305Z,2.33
2023-01-19T20:51:45.223Z,1.75
2023-01-19T20:54:13.035Z,4.28
2023-01-19T20:56:41.400Z,3.65
2023-01-19T20:59:09.709Z,2.85
2023-01-19T21:01:36.745Z,1.67
2023-01-19T21:04:03.541Z,1.50
2023-01-19T21:06:30.129Z,1.55
2023-01-19T21:08:57.542Z,1.60
2023-01-19T21:11:25.009Z,1.60
2023-01-19T21:13:55.626Z,2.00
2023-01-19T21:16:24.103Z,2.00
2023-01-19T21:18:50.932Z,2.33
2023-01-19T21:21:29.346Z,1.92
2023-01-19T21:23:57.864Z,1.60
2023-01-19T21:26:24.368Z,1.80
2023-01-19T21:28:51.019Z,1.73
2023-01-19T21:31:17.704Z,1.80
2023-01-19T21:33:44.473Z,2.50
2023-01-19T21:36:11.126Z,2.67
2023-01-19T21:38:39.125Z,2.45
2023-01-19T21:41:10.997Z,2.67
2023-01-19T21:43:39.089Z,2.70
2023-01-19T21:46:11.432Z,2.92
2023-01-19T21:48:38.222Z,2.40
2023-01-19T21:51:05.040Z,2.20
2023-01-19T21:53:31.563Z,2.47
2023-01-19T21:55:58.863Z,2.60
2023-01-19T21:58:25.438Z,3.10
2023-01-19T22:00:59.313Z,3.50
2023-01-19T22:03:27.322Z,3.63
2023-01-19T22:05:54.824Z,3.35
2023-01-19T22:08:22.283Z,3.10
2023-01-19T22:10:49.447Z,3.40
2023-01-19T22:13:15.941Z,3.05
2023-01-19T22:15:42.619Z,3.53
2023-01-19T22:18:09.159Z,3.72
2023-01-19T22:20:35.740Z,3.42
2023-01-19T22:23:02.304Z,3.80
2023-01-19T22:25:28.919Z,4.00
2023-01-19T22:27:56.519Z,4.28
2023-01-19T22:30:23.294Z,3.92
2023-01-19T22:32:49.966Z,3.80
2023-01-19T22:35:16.694Z,4.03
2023-01-19T22:37:43.363Z,4.32
2023-01-19T22:40:11.058Z,4.07
2023-01-19T22:42:37.805Z,3.85
2023-01-19T22:45:04.723Z,4.30
2023-01-19T22:47:31.465Z,3.88
2023-01-19T22:50:00.151Z,4.18
2023-01-19T22:52:26.974Z,4.05
2023-01-19T22:54:56.285Z,3.83
2023-01-19T22:57:22.944Z,3.72
2023-01-19T22:59:49.478Z,3.70
2023-01-19T23:02:16.370Z,3.78
2023-01-19T23:04:43.042Z,3.58
2023-01-19T23:07:09.793Z,4.18
2023-01-19T23:09:37.750Z,3.85
2023-01-19T23:12:04.642Z,4.03
2023-01-19T23:14:31.250Z,3.67
2023-01-19T23:16:57.838Z,4.43
2023-01-19T23:19:24.320Z,3.88
2023-01-19T23:21:52.532Z,4.18
2023-01-19T23:24:19.239Z,4.00
2023-01-19T23:26:45.966Z,4.47
2023-01-19T23:29:14.793Z,4.30
2023-01-19T23:34:16.498Z,3.10
2023-01-19T23:36:43.457Z,3.70
2023-01-19T23:39:22.226Z,4.47
2023-01-19T23:41:49.668Z,4.00
2023-01-19T23:44:17.256Z,3.78
2023-01-19T23:46:44.170Z,3.65
2023-01-19T23:49:11.492Z,3.70
2023-01-19T23:51:39.775Z,3.47
2023-01-19T23:54:06.423Z,3.80
2023-01-19T23:56:35.970Z,3.28
2023-01-19T23:59:05.916Z,4.20
